Senai International Airport
WMKJ : now visible

Airfield :











YOU CAN JOIN US ON...

 
LOGIN :

Register | Disclaimer

   EN    FR    IT 

 









Legend :    VFR   Marginal VFR   IFR   Intensive IFR   Very Intensive IFR
Visi :
Ceiling :
>= 8 km
>= 3000ft
5 to 8 km
1000 to 3000 ft
1500m to 5 km
500 to 1000 ft
800 to 1500m
200 to 500 ft
< 800m
< 200 ft
Symbols :   Thunderstorms  Fog  Heavy snow  Heavy precipitations  Wind > 20 kt






- Airport Elevation : 135 ft
- IATA code : JHB


WMKJ - Senai International

CURRENT METAR :
  • 230200Z 03008KT 260V070 9999 SCT018 29/25 Q1012

EXPIRED METARs :
  • 230100Z VRB03KT 9999 FEW018 27/25 Q1012
  • 230000Z 00000KT 8000 FEW012 24/23 Q1011

TAF TAF WMKJ
Valid from the 23 at 00:00 until the 24 at 00:00 UTC


222300Z 2300/2400 03008KT 9999 FEW018
PROB30
TEMPO 2307/2311 4000 TSRA FEW010 FEW017CB SCT018
BECMG 2312/2314 VRB02KT FEW022



MET'MAP, your aeronautical weather chart ! - Copyright ORBIFLY December 2007 - Disclaimer

ORBIFLY MET'MAP TEAM :

Programming & Development : Alexandra Zaïnal
Concept & original design : Baudouin d'Aumeries
Assistance for programming : Marc-Olivier Méhu
Technical & hardware support : Manuel Goepfert

Contact : metmap@orbifly.com




SOURCES & CREDITS :

   NOAA       Earth
Advisory